createdAt,value
2023-04-08T00:03:03.126Z,11.68
2023-04-08T00:06:05.660Z,12.93
2023-04-08T00:09:08.059Z,11.90
2023-04-08T00:12:10.341Z,12.32
2023-04-08T00:15:12.734Z,13.40
2023-04-08T00:18:18.613Z,11.07
2023-04-08T00:21:21.465Z,13.93
2023-04-08T00:24:24.138Z,12.20
2023-04-08T00:27:26.473Z,12.82
2023-04-08T00:30:28.813Z,13.90
2023-04-08T00:33:31.289Z,13.80
2023-04-08T00:36:33.988Z,13.18
2023-04-08T00:39:37.280Z,13.93
2023-04-08T00:42:39.823Z,12.60
2023-04-08T00:45:42.008Z,13.65
2023-04-08T00:48:44.245Z,12.98
2023-04-08T00:51:46.477Z,14.10
2023-04-08T00:54:48.834Z,12.90
2023-04-08T00:57:51.211Z,12.30
2023-04-08T01:01:34.518Z,13.65
2023-04-08T01:04:44.461Z,15.35
2023-04-08T01:07:51.351Z,12.60
2023-04-08T01:10:58.844Z,15.18
2023-04-08T01:14:06.732Z,14.25
2023-04-08T01:17:09.876Z,13.32
2023-04-08T01:20:15.323Z,14.68
2023-04-08T01:23:38.327Z,14.90
2023-04-08T01:26:41.289Z,14.23
2023-04-08T01:29:44.625Z,13.73
2023-04-08T01:32:48.289Z,13.75
2023-04-08T01:35:52.640Z,15.93
2023-04-08T01:38:55.297Z,14.45
2023-04-08T01:41:59.484Z,14.73
2023-04-08T01:45:03.999Z,16.08
2023-04-08T01:48:07.628Z,14.93
2023-04-08T01:51:10.059Z,15.07
2023-04-08T01:54:12.285Z,14.20
2023-04-08T01:57:27.447Z,16.02
2023-04-08T02:00:32.374Z,15.48
2023-04-08T02:03:36.023Z,15.30
2023-04-08T02:06:39.044Z,14.57
2023-04-08T02:09:42.183Z,14.75
2023-04-08T02:12:45.722Z,16.25
2023-04-08T02:15:54.293Z,15.70
2023-04-08T02:19:01.146Z,15.70
2023-04-08T02:22:09.686Z,15.27
2023-04-08T02:25:17.409Z,16.17
2023-04-08T02:28:20.705Z,16.40
2023-04-08T02:31:24.049Z,15.95
2023-04-08T02:34:27.256Z,16.73
2023-04-08T02:37:30.563Z,16.67
2023-04-08T02:40:35.592Z,17.17
2023-04-08T02:43:39.123Z,16.63
2023-04-08T02:46:42.060Z,16.38
2023-04-08T02:49:44.414Z,14.68
2023-04-08T02:52:47.997Z,16.65
2023-04-08T02:55:50.919Z,17.55
2023-04-08T02:58:53.164Z,15.65
2023-04-08T03:01:55.643Z,16.15
2023-04-08T03:04:58.101Z,15.05
2023-04-08T03:08:00.359Z,16.30
2023-04-08T03:11:02.615Z,16.20
2023-04-08T03:14:04.856Z,15.20
2023-04-08T03:17:07.091Z,16.35
2023-04-08T03:20:09.788Z,16.05
2023-04-08T03:23:12.001Z,15.15
2023-04-08T03:26:14.274Z,15.52
2023-04-08T03:29:16.603Z,15.77
2023-04-08T03:32:19.102Z,17.05
2023-04-08T03:35:21.360Z,16.40
2023-04-08T03:38:23.710Z,17.33
2023-04-08T03:41:26.297Z,16.35
2023-04-08T03:44:28.769Z,15.10
2023-04-08T03:47:31.379Z,15.60
2023-04-08T03:50:33.722Z,15.50
2023-04-08T03:53:35.892Z,15.13
2023-04-08T03:56:38.192Z,16.02
2023-04-08T03:59:41.393Z,16.80
2023-04-08T04:02:43.847Z,16.65
2023-04-08T04:05:46.196Z,17.23
2023-04-08T04:08:48.723Z,16.02
2023-04-08T04:11:51.250Z,15.07
2023-04-08T04:14:53.689Z,15.25
2023-04-08T04:17:56.042Z,16.27
2023-04-08T04:20:58.371Z,16.55
2023-04-08T04:24:00.678Z,15.30
2023-04-08T04:27:02.866Z,15.05
2023-04-08T04:30:05.979Z,16.55
2023-04-08T04:33:08.470Z,18.13
2023-04-08T04:36:10.687Z,16.00
2023-04-08T04:39:13.024Z,15.68
2023-04-08T04:42:15.904Z,16.15
2023-04-08T04:45:18.252Z,16.08
2023-04-08T04:48:20.629Z,15.93
2023-04-08T04:51:22.938Z,15.32
2023-04-08T04:54:25.480Z,15.45
2023-04-08T04:57:28.015Z,16.17
2023-04-08T05:00:30.308Z,16.25
2023-04-08T05:03:32.519Z,15.73
2023-04-08T05:06:35.091Z,16.15
2023-04-08T05:09:37.361Z,15.30
2023-04-08T05:12:39.716Z,15.90
2023-04-08T05:15:42.009Z,14.30
2023-04-08T05:18:44.378Z,15.60
2023-04-08T05:21:46.995Z,14.68
2023-04-08T05:24:49.304Z,16.35
2023-04-08T05:27:51.543Z,16.13
2023-04-08T05:30:54.771Z,16.60
2023-04-08T05:33:57.009Z,15.18
2023-04-08T05:36:59.242Z,16.27
2023-04-08T05:40:01.643Z,16.55
2023-04-08T05:43:04.314Z,17.23
2023-04-08T05:46:10.740Z,16.48
2023-04-08T05:49:13.050Z,16.83
2023-04-08T05:52:16.025Z,16.63
2023-04-08T05:55:18.192Z,17.70
2023-04-08T05:58:20.553Z,16.73
2023-04-08T06:01:22.752Z,16.92
2023-04-08T06:04:25.257Z,16.65
2023-04-08T06:07:27.593Z,17.40
2023-04-08T06:10:29.889Z,18.27
2023-04-08T06:13:32.856Z,17.33
2023-04-08T06:16:35.268Z,18.73
2023-04-08T06:19:37.570Z,17.52
2023-04-08T06:22:39.923Z,17.65
2023-04-08T06:25:42.346Z,18.02
2023-04-08T06:28:44.610Z,18.80
2023-04-08T06:31:47.024Z,18.02
2023-04-08T06:34:49.782Z,18.13
2023-04-08T06:37:52.042Z,17.08
2023-04-08T06:40:54.253Z,17.38
2023-04-08T06:43:56.385Z,18.70
2023-04-08T06:46:58.616Z,18.23
2023-04-08T06:50:01.074Z,18.60
2023-04-08T06:53:03.371Z,18.63
2023-04-08T06:56:05.720Z,18.20
2023-04-08T06:59:08.017Z,18.10
2023-04-08T07:02:10.345Z,17.40
2023-04-08T07:05:12.577Z,14.35
2023-04-08T07:08:14.813Z,14.48
2023-04-08T07:11:17.119Z,15.18
2023-04-08T07:14:20.184Z,13.43
2023-04-08T07:17:22.521Z,12.60
2023-04-08T07:20:24.851Z,14.20
2023-04-08T07:23:27.709Z,14.30
2023-04-08T07:26:29.902Z,16.60
2023-04-08T07:29:32.571Z,13.60
2023-04-08T07:32:35.121Z,13.55
2023-04-08T07:35:38.142Z,13.77
2023-04-08T07:38:43.461Z,13.75
2023-04-08T07:41:45.781Z,15.13
2023-04-08T07:44:48.188Z,14.88
2023-04-08T07:47:50.770Z,15.68
2023-04-08T07:51:09.197Z,16.00
2023-04-08T07:54:17.525Z,15.13
2023-04-08T07:57:19.837Z,15.60
2023-04-08T08:00:22.390Z,14.55
2023-04-08T08:03:25.166Z,14.98
2023-04-08T08:06:28.029Z,13.75
2023-04-08T08:09:32.093Z,12.73
2023-04-08T08:12:34.450Z,14.20
2023-04-08T08:15:36.810Z,14.00
2023-04-08T08:18:40.733Z,13.88
2023-04-08T08:21:43.091Z,13.60
2023-04-08T08:24:45.406Z,14.57
2023-04-08T08:27:47.954Z,14.13
2023-04-08T08:30:50.078Z,13.98
2023-04-08T08:33:52.560Z,12.73
2023-04-08T08:36:55.127Z,12.75
2023-04-08T08:39:57.288Z,13.55
2023-04-08T08:43:01.571Z,13.63
2023-04-08T08:46:03.978Z,12.25
2023-04-08T08:49:06.309Z,11.10
2023-04-08T08:52:08.551Z,12.48
2023-04-08T08:55:26.943Z,12.48
2023-04-08T08:58:33.276Z,11.52
2023-04-08T09:01:42.135Z,10.05
2023-04-08T09:05:05.752Z,10.90
2023-04-08T09:08:24.246Z,11.82
2023-04-08T09:11:26.711Z,10.25
2023-04-08T09:14:29.194Z,12.82
2023-04-08T09:17:39.000Z,10.48
2023-04-08T09:20:53.915Z,12.85
2023-04-08T09:23:56.219Z,10.10
2023-04-08T09:26:58.815Z,9.98
2023-04-08T09:30:16.693Z,11.23
2023-04-08T09:33:18.938Z,8.77
2023-04-08T09:36:21.299Z,10.93
2023-04-08T09:39:23.903Z,10.65
2023-04-08T09:42:26.865Z,8.27
2023-04-08T09:45:30.143Z,10.18
2023-04-08T09:48:41.610Z,9.13
2023-04-08T09:52:05.438Z,8.55
2023-04-08T09:55:10.007Z,9.32
2023-04-08T09:58:17.289Z,8.27
2023-04-08T10:01:27.211Z,7.38
2023-04-08T10:04:32.642Z,8.95
2023-04-08T10:07:36.193Z,7.13
2023-04-08T10:10:42.811Z,8.63
2023-04-08T10:13:45.190Z,7.55
2023-04-08T10:16:47.550Z,7.45
2023-04-08T10:19:50.229Z,7.13
2023-04-08T10:22:52.686Z,6.57
2023-04-08T10:25:55.003Z,7.28
2023-04-08T10:29:13.299Z,8.57
2023-04-08T10:32:29.253Z,8.55
2023-04-08T10:35:38.420Z,9.23
2023-04-08T10:38:42.946Z,9.57
2023-04-08T10:41:49.870Z,8.93
2023-04-08T10:44:52.298Z,9.07
2023-04-08T10:47:54.693Z,8.70
2023-04-08T10:51:04.306Z,8.82
2023-04-08T10:54:14.954Z,9.68
2023-04-08T10:57:24.910Z,9.07
2023-04-08T11:00:38.486Z,8.90
2023-04-08T11:03:42.995Z,9.18
2023-04-08T11:06:47.634Z,9.57
2023-04-08T11:09:49.940Z,10.32
2023-04-08T11:12:54.364Z,8.88
2023-04-08T11:15:58.658Z,9.05
2023-04-08T11:19:03.992Z,9.07
2023-04-08T11:22:09.553Z,10.35
2023-04-08T11:25:12.259Z,9.52
2023-04-08T11:28:15.456Z,9.52
2023-04-08T11:31:19.774Z,9.90
2023-04-08T11:34:24.848Z,8.57
2023-04-08T11:37:29.456Z,10.20
2023-04-08T11:40:31.894Z,9.82
2023-04-08T11:43:36.797Z,9.75
2023-04-08T11:46:41.237Z,10.00
2023-04-08T11:49:47.293Z,10.27
2023-04-08T11:52:51.233Z,9.82
2023-04-08T11:55:53.571Z,8.93
2023-04-08T11:58:55.849Z,9.40
2023-04-08T12:01:59.305Z,10.30
2023-04-08T12:05:01.743Z,9.43
2023-04-08T12:08:04.576Z,7.88
2023-04-08T12:11:16.869Z,9.85
2023-04-08T12:14:26.202Z,9.02
2023-04-08T12:17:29.907Z,9.95
2023-04-08T12:20:32.107Z,9.32
2023-04-08T12:23:34.336Z,8.77
2023-04-08T12:26:36.544Z,8.65
2023-04-08T12:29:39.379Z,9.50
2023-04-08T12:32:42.953Z,9.13
2023-04-08T12:35:45.261Z,9.80
2023-04-08T12:38:47.543Z,8.68
2023-04-08T12:41:49.823Z,9.23
2023-04-08T12:44:52.045Z,10.63
2023-04-08T12:47:54.435Z,8.48
2023-04-08T12:50:56.750Z,8.82
2023-04-08T12:54:00.992Z,9.40
2023-04-08T12:57:03.279Z,8.45
2023-04-08T13:00:06.282Z,9.02
2023-04-08T13:03:08.640Z,8.40
2023-04-08T13:06:12.250Z,8.52
2023-04-08T13:09:15.384Z,8.20
2023-04-08T13:12:17.617Z,8.85
2023-04-08T13:15:19.933Z,9.50
2023-04-08T13:18:22.455Z,9.07
2023-04-08T13:21:24.735Z,8.63
2023-04-08T13:24:27.677Z,8.43
2023-04-08T13:27:29.967Z,8.65
2023-04-08T13:30:32.323Z,8.52
2023-04-08T13:33:34.585Z,8.43
2023-04-08T13:36:37.067Z,8.13
2023-04-08T13:39:39.364Z,8.93
2023-04-08T13:42:41.905Z,8.07
2023-04-08T13:45:44.868Z,8.75
2023-04-08T13:48:47.149Z,8.13
2023-04-08T13:51:49.392Z,9.25
2023-04-08T13:54:51.874Z,8.57
2023-04-08T13:57:54.061Z,9.43
2023-04-08T14:00:56.663Z,8.38
2023-04-08T14:03:58.941Z,7.75
2023-04-08T14:07:01.318Z,8.60
2023-04-08T14:10:03.759Z,9.52
2023-04-08T14:13:05.938Z,8.50
2023-04-08T14:16:08.195Z,9.18
2023-04-08T14:19:10.426Z,8.40
2023-04-08T14:22:12.782Z,9.38
2023-04-08T14:25:15.858Z,9.57
2023-04-08T14:28:18.133Z,8.70
2023-04-08T14:31:20.517Z,10.35
2023-04-08T14:34:22.914Z,12.48
2023-04-08T14:37:25.183Z,9.27
2023-04-08T14:40:27.538Z,10.68
2023-04-08T14:43:29.834Z,10.55
2023-04-08T14:46:32.798Z,8.43
2023-04-08T14:49:35.106Z,9.90
2023-04-08T14:52:37.395Z,9.85
2023-04-08T14:55:40.080Z,9.70
2023-04-08T14:58:42.562Z,8.48
2023-04-08T15:01:45.282Z,8.85
2023-04-08T15:04:47.716Z,7.75
2023-04-08T15:07:50.153Z,8.68
2023-04-08T15:10:52.415Z,8.75
2023-04-08T15:13:54.688Z,7.30
2023-04-08T15:16:56.957Z,8.60
2023-04-08T15:19:59.292Z,7.90
2023-04-08T15:23:01.516Z,8.25
2023-04-08T15:26:03.801Z,7.88
2023-04-08T15:29:06.551Z,8.18
2023-04-08T15:32:08.852Z,8.43
2023-04-08T15:35:11.273Z,7.40
2023-04-08T15:38:13.663Z,8.55
2023-04-08T15:41:21.562Z,7.65
2023-04-08T15:44:24.448Z,8.10
2023-04-08T15:47:26.797Z,7.13
2023-04-08T15:50:30.328Z,8.02
2023-04-08T15:53:32.529Z,7.22
2023-04-08T15:56:34.804Z,6.57
2023-04-08T15:59:37.305Z,6.88
2023-04-08T16:02:40.074Z,7.75
2023-04-08T16:05:42.482Z,7.68
2023-04-08T16:08:47.066Z,6.78
2023-04-08T16:11:49.298Z,6.75
2023-04-08T16:14:51.847Z,7.10
2023-04-08T16:17:54.225Z,6.78
2023-04-08T16:20:57.210Z,7.22
2023-04-08T16:23:59.532Z,7.03
2023-04-08T16:27:01.753Z,6.53
2023-04-08T16:30:04.837Z,6.53
2023-04-08T16:33:07.466Z,6.95
2023-04-08T16:36:09.974Z,6.97
2023-04-08T16:39:12.332Z,6.75
2023-04-08T16:42:14.748Z,6.80
2023-04-08T16:45:17.143Z,5.93
2023-04-08T16:48:19.719Z,5.70
2023-04-08T16:51:21.902Z,5.40
2023-04-08T16:54:24.140Z,6.50
2023-04-08T16:57:27.568Z,5.70
2023-04-08T17:00:31.337Z,6.53
2023-04-08T17:03:34.666Z,5.85
2023-04-08T17:06:37.882Z,5.38
2023-04-08T17:09:40.101Z,5.25
2023-04-08T17:12:42.437Z,5.75
2023-04-08T17:15:44.917Z,5.22
2023-04-08T17:18:47.420Z,5.30
2023-04-08T17:21:49.756Z,4.90
2023-04-08T17:24:52.153Z,5.43
2023-04-08T17:27:54.451Z,5.20
2023-04-08T17:30:56.723Z,5.10
2023-04-08T17:33:59.042Z,4.45
2023-04-08T17:37:01.263Z,4.78
2023-04-08T17:40:03.649Z,5.30
2023-04-08T17:43:06.085Z,4.75
2023-04-08T17:46:08.623Z,4.55
2023-04-08T17:49:13.013Z,4.72
2023-04-08T17:52:15.322Z,4.47
2023-04-08T17:55:17.564Z,4.80
2023-04-08T17:58:19.797Z,4.65
2023-04-08T18:01:22.906Z,4.20
2023-04-08T18:04:25.373Z,4.00
2023-04-08T18:07:27.814Z,4.20
2023-04-08T18:10:30.065Z,4.55
2023-04-08T18:13:32.687Z,4.00
2023-04-08T18:16:34.897Z,4.60
2023-04-08T18:19:37.142Z,3.90
2023-04-08T18:22:39.420Z,3.80
2023-04-08T18:25:44.765Z,4.25
2023-04-08T18:28:47.396Z,3.88
2023-04-08T18:31:49.641Z,3.85
2023-04-08T18:34:53.033Z,3.97
2023-04-08T18:37:56.688Z,3.72
2023-04-08T18:40:58.941Z,3.70
2023-04-08T18:44:03.365Z,3.50
2023-04-08T18:47:05.918Z,4.07
2023-04-08T18:50:08.631Z,4.00
2023-04-08T18:53:10.881Z,3.58
2023-04-08T18:56:17.582Z,3.50
2023-04-08T18:59:20.043Z,3.67
2023-04-08T19:02:23.150Z,3.80
2023-04-08T19:05:25.765Z,3.33
2023-04-08T19:08:27.934Z,3.65
2023-04-08T19:11:30.711Z,3.67
2023-04-08T19:14:32.914Z,3.10
2023-04-08T19:17:35.223Z,3.78
2023-04-08T19:20:38.141Z,3.42
2023-04-08T19:23:41.655Z,3.60
2023-04-08T19:26:43.899Z,3.35
2023-04-08T19:29:46.228Z,3.13
2023-04-08T19:32:48.981Z,2.90
2023-04-08T19:35:51.248Z,3.30
2023-04-08T19:38:53.498Z,3.28
2023-04-08T19:41:55.676Z,3.35
2023-04-08T19:44:57.926Z,3.17
2023-04-08T19:48:00.354Z,3.30
2023-04-08T19:51:03.608Z,3.20
2023-04-08T19:54:05.864Z,3.20
2023-04-08T19:57:09.468Z,3.15
2023-04-08T20:00:14.118Z,3.35
2023-04-08T20:03:16.893Z,3.17
2023-04-08T20:06:20.727Z,3.50
2023-04-08T20:09:23.014Z,3.28
2023-04-08T20:12:25.208Z,3.38
2023-04-08T20:15:27.552Z,3.13
2023-04-08T20:18:29.937Z,2.83
2023-04-08T20:21:32.889Z,3.58
2023-04-08T20:24:35.771Z,3.65
2023-04-08T20:27:37.964Z,3.22
2023-04-08T20:30:40.980Z,3.70
2023-04-08T20:33:46.532Z,3.25
2023-04-08T20:36:48.838Z,2.80
2023-04-08T20:39:51.358Z,3.30
2023-04-08T20:42:53.934Z,2.95
2023-04-08T20:45:56.342Z,3.08
2023-04-08T20:48:58.544Z,3.05
2023-04-08T20:52:01.106Z,3.33
2023-04-08T20:55:03.453Z,3.80
2023-04-08T20:58:07.860Z,3.53
2023-04-08T21:01:10.117Z,3.30
2023-04-08T21:04:12.594Z,3.67
2023-04-08T21:07:14.906Z,4.07
2023-04-08T21:10:17.868Z,3.60
2023-04-08T21:13:20.514Z,3.53
2023-04-08T21:16:22.830Z,3.55
2023-04-08T21:19:25.076Z,3.78
2023-04-08T21:22:27.319Z,4.25
2023-04-08T21:25:31.417Z,4.80
2023-04-08T21:28:33.627Z,4.95
2023-04-08T21:31:35.929Z,4.75
2023-04-08T21:34:38.214Z,4.60
2023-04-08T21:37:40.817Z,4.22
2023-04-08T21:40:43.001Z,4.15
2023-04-08T21:43:45.271Z,4.63
2023-04-08T21:46:49.402Z,6.13
2023-04-08T21:49:51.704Z,5.35
2023-04-08T21:52:53.903Z,5.18
2023-04-08T21:55:56.522Z,5.35
2023-04-08T21:58:58.861Z,5.70
2023-04-08T22:02:01.311Z,6.10
2023-04-08T22:05:04.193Z,6.07
2023-04-08T22:08:06.651Z,6.30
2023-04-08T22:11:09.137Z,5.78
2023-04-08T22:14:11.430Z,5.75
2023-04-08T22:17:13.672Z,7.10
2023-04-08T22:20:16.041Z,8.30
2023-04-08T22:23:18.392Z,8.55
2023-04-08T22:26:21.551Z,8.13
2023-04-08T22:29:23.875Z,7.32
2023-04-08T22:32:26.200Z,8.90
2023-04-08T22:35:29.271Z,8.85
2023-04-08T22:38:31.973Z,8.45
2023-04-08T22:41:34.290Z,7.85
2023-04-08T22:44:36.659Z,9.10
2023-04-08T22:47:38.914Z,9.43
2023-04-08T22:50:41.435Z,8.98
2023-04-08T22:53:44.044Z,8.63
2023-04-08T22:56:46.294Z,8.48
2023-04-08T22:59:48.609Z,8.68
2023-04-08T23:02:51.335Z,9.40
2023-04-08T23:05:53.613Z,9.20
2023-04-08T23:08:55.924Z,8.82
2023-04-08T23:11:58.650Z,8.55
2023-04-08T23:15:01.205Z,9.10
2023-04-08T23:18:03.397Z,8.38
2023-04-08T23:21:06.842Z,8.82
2023-04-08T23:24:09.181Z,9.43
2023-04-08T23:27:11.491Z,8.52
2023-04-08T23:30:13.854Z,9.18
2023-04-08T23:33:16.194Z,8.90
2023-04-08T23:36:18.490Z,9.77
2023-04-08T23:39:21.126Z,9.68
2023-04-08T23:42:27.498Z,8.85
2023-04-08T23:45:29.758Z,9.40
2023-04-08T23:48:32.076Z,9.27
2023-04-08T23:51:34.389Z,9.85
2023-04-08T23:54:36.644Z,9.25
2023-04-08T23:57:42.965Z,10.45
